createdAt,value
2023-03-01T00:02:13.318Z,61.76
2023-03-01T00:07:15.481Z,61.05
2023-03-01T00:12:17.604Z,61.95
2023-03-01T00:17:19.625Z,62.24
2023-03-01T00:22:21.661Z,62.59
2023-03-01T00:27:23.698Z,63.34
2023-03-01T00:32:25.860Z,62.63
2023-03-01T00:37:27.842Z,62.48
2023-03-01T00:42:29.883Z,62.10
2023-03-01T00:47:31.914Z,61.93
2023-03-01T00:52:33.911Z,62.71
2023-03-01T00:57:35.908Z,62.95
2023-03-01T01:02:37.981Z,62.84
2023-03-01T01:07:40.115Z,63.34
2023-03-01T01:12:42.101Z,62.84
2023-03-01T01:17:45.015Z,62.61
2023-03-01T01:22:46.985Z,62.80
2023-03-01T01:27:48.969Z,62.42
2023-03-01T01:32:50.980Z,63.77
2023-03-01T01:37:52.961Z,63.93
2023-03-01T01:42:54.924Z,63.33
2023-03-01T01:48:01.726Z,63.39
2023-03-01T01:53:03.769Z,62.85
2023-03-01T01:58:10.424Z,63.69
2023-03-01T02:03:20.220Z,62.58
2023-03-01T02:08:24.266Z,62.25
2023-03-01T02:13:26.546Z,62.84
2023-03-01T02:18:28.660Z,63.59
2023-03-01T02:23:31.067Z,63.60
2023-03-01T02:28:45.229Z,62.45
2023-03-01T02:33:49.840Z,62.96
2023-03-01T02:38:54.868Z,64.06
2023-03-01T02:43:57.049Z,63.15
2023-03-01T02:49:00.365Z,64.50
2023-03-01T02:54:14.845Z,62.67
2023-03-01T02:59:23.498Z,64.50
2023-03-01T03:04:25.614Z,63.67
2023-03-01T03:09:27.638Z,64.59
2023-03-01T03:14:29.625Z,64.76
2023-03-01T03:19:31.618Z,64.37
2023-03-01T03:24:39.384Z,63.81
2023-03-01T03:29:41.545Z,63.54
2023-03-01T03:34:43.667Z,64.77
2023-03-01T03:39:45.684Z,63.58
2023-03-01T03:44:47.722Z,64.86
2023-03-01T03:49:49.718Z,64.46
2023-03-01T03:54:51.706Z,64.27
2023-03-01T03:59:53.665Z,63.90
2023-03-01T04:04:55.615Z,63.32
2023-03-01T04:09:57.627Z,63.93
2023-03-01T04:14:59.625Z,63.83
2023-03-01T04:20:06.916Z,64.30
2023-03-01T04:25:09.279Z,64.73
2023-03-01T04:30:12.185Z,64.09
2023-03-01T04:35:14.159Z,64.69
2023-03-01T04:40:17.885Z,64.17
2023-03-01T04:45:20.218Z,64.78
2023-03-01T04:50:23.003Z,63.74
2023-03-01T04:55:27.024Z,64.47
2023-03-01T05:00:29.073Z,64.97
2023-03-01T05:05:37.400Z,64.71
2023-03-01T05:10:42.124Z,63.52
2023-03-01T05:15:45.896Z,63.60
2023-03-01T05:20:48.564Z,65.04
2023-03-01T05:25:51.885Z,64.58
2023-03-01T05:30:53.918Z,64.33
2023-03-01T05:35:56.049Z,64.41
2023-03-01T05:40:58.174Z,63.96
2023-03-01T05:46:01.197Z,64.08
2023-03-01T05:51:03.275Z,64.79
2023-03-01T05:56:05.975Z,65.35
2023-03-01T06:01:12.869Z,65.06
2023-03-01T06:06:14.900Z,65.11
2023-03-01T06:11:17.144Z,65.58
2023-03-01T06:16:19.322Z,65.29
2023-03-01T06:21:22.197Z,65.25
2023-03-01T06:26:24.969Z,65.48
2023-03-01T06:31:27.180Z,66.86
2023-03-01T06:36:29.330Z,67.75
2023-03-01T06:41:31.560Z,68.49
2023-03-01T06:46:34.473Z,68.75
2023-03-01T06:51:38.245Z,70.36
2023-03-01T06:56:40.753Z,70.37
2023-03-01T07:01:42.878Z,70.97
2023-03-01T07:06:45.098Z,70.98
2023-03-01T07:11:48.240Z,71.85
2023-03-01T07:16:50.491Z,73.05
2023-03-01T07:21:52.621Z,73.39
2023-03-01T07:26:54.992Z,73.39
2023-03-01T07:31:57.114Z,74.03
2023-03-01T07:36:59.274Z,74.61
2023-03-01T07:42:02.224Z,74.65
2023-03-01T07:47:07.682Z,74.97
2023-03-01T07:52:15.600Z,75.39
2023-03-01T07:57:18.271Z,74.89
2023-03-01T08:02:20.476Z,75.32
2023-03-01T08:07:22.544Z,75.64
2023-03-01T08:12:24.927Z,76.69
2023-03-01T08:17:27.189Z,76.63
2023-03-01T08:22:29.239Z,76.66
2023-03-01T08:27:31.284Z,75.92
2023-03-01T08:32:38.787Z,75.95
2023-03-01T08:37:40.817Z,75.69
2023-03-01T08:42:45.627Z,76.48
2023-03-01T08:47:52.180Z,74.43
2023-03-01T08:52:54.318Z,72.88
2023-03-01T08:57:57.072Z,72.08
2023-03-01T09:03:00.518Z,71.51
2023-03-01T09:08:02.967Z,71.26
2023-03-01T09:13:05.234Z,69.69
2023-03-01T09:18:07.398Z,70.00
2023-03-01T09:23:13.698Z,69.59
2023-03-01T09:28:29.466Z,68.08
2023-03-01T09:33:36.000Z,68.42
2023-03-01T09:38:43.303Z,67.01
2023-03-01T09:44:02.486Z,66.67
2023-03-01T09:49:28.520Z,66.16
2023-03-01T09:54:32.966Z,65.59
2023-03-01T09:59:49.230Z,64.34
2023-03-01T10:04:55.891Z,63.81
2023-03-01T10:09:59.513Z,64.39
2023-03-01T10:15:20.744Z,63.86
2023-03-01T10:20:35.807Z,63.05
2023-03-01T10:25:54.279Z,63.36
2023-03-01T10:31:16.010Z,63.21
2023-03-01T10:36:53.031Z,64.00
2023-03-01T10:42:03.972Z,63.37
2023-03-01T10:47:24.968Z,63.27
2023-03-01T10:52:38.803Z,62.45
2023-03-01T10:57:44.969Z,62.80
2023-03-01T11:03:12.295Z,61.09
2023-03-01T11:08:18.457Z,59.38
2023-03-01T11:13:22.211Z,58.82
2023-03-01T11:18:46.294Z,59.28
2023-03-01T11:23:51.317Z,59.50
2023-03-01T11:29:00.414Z,60.07
2023-03-01T11:34:22.779Z,59.28
2023-03-01T11:39:57.417Z,59.68
2023-03-01T11:45:03.655Z,59.77
2023-03-01T11:50:18.246Z,59.06
2023-03-01T11:55:38.780Z,60.28
2023-03-01T12:00:50.663Z,59.91
2023-03-01T12:06:16.589Z,60.23
2023-03-01T12:11:34.193Z,60.37
2023-03-01T12:17:13.128Z,59.29
2023-03-01T12:22:32.845Z,60.14
2023-03-01T12:27:47.044Z,60.23
2023-03-01T12:33:11.458Z,58.61
2023-03-01T12:38:26.781Z,59.95
2023-03-01T12:44:07.714Z,59.22
2023-03-01T12:49:17.934Z,59.24
2023-03-01T12:54:38.892Z,56.96
2023-03-01T13:00:11.767Z,58.21
2023-03-01T13:05:26.337Z,56.87
2023-03-01T13:10:36.269Z,57.56
2023-03-01T13:15:40.816Z,56.96
2023-03-01T13:21:09.811Z,57.82
2023-03-01T13:26:15.687Z,57.24
2023-03-01T13:31:20.718Z,55.34
2023-03-01T13:36:37.671Z,59.69
2023-03-01T13:41:40.596Z,60.55
2023-03-01T13:46:45.925Z,61.37
2023-03-01T13:51:50.361Z,61.00
2023-03-01T13:56:53.094Z,61.52
2023-03-01T14:07:46.956Z,61.30
2023-03-01T14:13:14.513Z,61.88
2023-03-01T14:18:37.631Z,61.21
2023-03-01T14:23:46.591Z,60.85
2023-03-01T14:28:57.240Z,58.78
2023-03-01T14:34:02.548Z,58.08
2023-03-01T14:39:25.676Z,58.31
2023-03-01T14:44:28.289Z,59.44
2023-03-01T14:50:18.166Z,59.05
2023-03-01T15:00:38.406Z,59.61
2023-03-01T15:05:44.388Z,59.85
2023-03-01T15:17:37.616Z,58.25
2023-03-01T15:29:03.400Z,57.63
2023-03-01T15:34:26.745Z,57.07
2023-03-01T15:39:39.833Z,56.81
2023-03-01T15:44:47.813Z,56.57
2023-03-01T15:50:39.476Z,57.08
2023-03-01T15:55:46.977Z,56.90
2023-03-01T16:01:01.270Z,56.67
2023-03-01T16:06:05.923Z,56.52
2023-03-01T16:11:20.340Z,56.85
2023-03-01T16:16:32.743Z,56.69
2023-03-01T16:21:35.623Z,56.56
2023-03-01T16:26:39.365Z,56.35
2023-03-01T16:31:42.353Z,55.42
2023-03-01T16:36:45.503Z,55.42
2023-03-01T16:41:48.008Z,55.44
2023-03-01T16:46:49.935Z,56.16
2023-03-01T16:51:54.555Z,56.03
2023-03-01T16:56:56.925Z,55.84
2023-03-01T17:02:17.419Z,55.83
2023-03-01T17:07:20.386Z,56.06
2023-03-01T17:12:26.042Z,55.96
2023-03-01T17:17:30.013Z,56.18
2023-03-01T17:22:40.160Z,56.03
2023-03-01T17:27:43.628Z,55.87
2023-03-01T17:33:02.445Z,56.21
2023-03-01T17:38:50.716Z,56.21
2023-03-01T17:43:55.344Z,55.60
2023-03-01T17:48:58.189Z,56.28
2023-03-01T17:54:01.342Z,56.23
2023-03-01T17:59:06.790Z,56.10
2023-03-01T18:04:15.509Z,56.05
2023-03-01T18:09:28.396Z,56.21
2023-03-01T18:14:46.259Z,56.21
2023-03-01T18:20:32.535Z,55.95
2023-03-01T18:25:44.024Z,56.44
2023-03-01T18:30:46.923Z,56.08
2023-03-01T18:35:52.584Z,57.19
2023-03-01T18:41:00.050Z,57.33
2023-03-01T18:46:06.058Z,57.14
2023-03-01T18:51:20.778Z,57.34
2023-03-01T18:56:33.011Z,56.98
2023-03-01T19:01:43.240Z,57.33
2023-03-01T19:06:46.686Z,57.76
2023-03-01T19:11:49.684Z,57.31
2023-03-01T19:16:53.782Z,57.91
2023-03-01T19:22:05.661Z,57.74
2023-03-01T19:27:11.463Z,57.71
2023-03-01T19:32:17.106Z,59.00
2023-03-01T19:37:20.252Z,58.07
2023-03-01T19:42:28.364Z,58.35
2023-03-01T19:47:31.652Z,58.40
2023-03-01T19:52:35.547Z,58.81
2023-03-01T19:57:39.291Z,58.83
2023-03-01T20:02:44.111Z,58.91
2023-03-01T20:07:48.416Z,58.85
2023-03-01T20:12:53.631Z,59.01
2023-03-01T20:17:58.248Z,59.03
2023-03-01T20:23:00.964Z,58.96
2023-03-01T20:28:05.150Z,58.75
2023-03-01T20:33:08.466Z,59.12
2023-03-01T20:38:11.552Z,59.54
2023-03-01T20:43:14.413Z,59.61
2023-03-01T20:48:17.519Z,59.43
2023-03-01T20:53:20.450Z,59.15
2023-03-01T20:58:25.249Z,60.14
2023-03-01T21:03:28.428Z,59.45
2023-03-01T21:08:36.320Z,60.58
2023-03-01T21:13:38.769Z,59.66
2023-03-01T21:18:41.431Z,60.72
2023-03-01T21:23:44.496Z,60.24
2023-03-01T21:28:47.715Z,59.95
2023-03-01T21:33:55.519Z,60.07
2023-03-01T21:39:01.111Z,60.59
2023-03-01T21:44:06.414Z,61.00
2023-03-01T21:49:09.170Z,60.76
2023-03-01T21:54:13.823Z,60.05
2023-03-01T21:59:22.198Z,60.72
2023-03-01T22:04:25.305Z,60.74
2023-03-01T22:09:27.787Z,60.58
2023-03-01T22:14:31.738Z,60.28
2023-03-01T22:19:33.868Z,60.70
2023-03-01T22:24:36.047Z,60.94
2023-03-01T22:29:38.048Z,61.27
2023-03-01T22:34:40.061Z,61.12
2023-03-01T22:39:42.053Z,60.69
2023-03-01T22:44:44.135Z,61.57
2023-03-01T22:49:46.156Z,61.63
2023-03-01T22:54:48.247Z,60.86
2023-03-01T22:59:50.200Z,61.41
2023-03-01T23:04:54.416Z,61.31
2023-03-01T23:10:00.623Z,61.52
2023-03-01T23:15:02.713Z,61.77
2023-03-01T23:20:10.638Z,62.30
2023-03-01T23:25:13.924Z,62.39
2023-03-01T23:30:16.463Z,61.83
2023-03-01T23:35:18.599Z,61.35
2023-03-01T23:40:20.885Z,61.67
2023-03-01T23:45:22.950Z,62.05
2023-03-01T23:50:25.393Z,62.02
2023-03-01T23:55:29.751Z,61.50
